createdAt,value
2018-12-27T00:14:14.546Z,1.90
2018-12-27T00:20:42.366Z,1.90
2018-12-27T00:26:56.877Z,1.90
2018-12-27T00:29:57.836Z,1.90
2018-12-27T00:38:38.286Z,1.90
2018-12-27T00:41:04.977Z,1.90
2018-12-27T00:56:49.455Z,1.90
2018-12-27T01:00:05.276Z,1.90
2018-12-27T01:02:53.641Z,2.00
2018-12-27T01:08:50.062Z,1.90
2018-12-27T01:15:23.618Z,1.90
2018-12-27T01:18:27.250Z,1.90
2018-12-27T01:30:32.025Z,1.90
2018-12-27T01:33:32.466Z,1.90
2018-12-27T01:36:16.567Z,1.90
2018-12-27T01:39:16.605Z,2.00
2018-12-27T01:42:17.676Z,2.00
2018-12-27T01:48:54.505Z,2.00
2018-12-27T01:50:56.877Z,2.00
2018-12-27T01:53:45.869Z,2.00
2018-12-27T02:00:22.966Z,2.00
2018-12-27T02:02:41.385Z,2.10
2018-12-27T02:08:18.446Z,2.00
2018-12-27T02:11:22.435Z,2.10
2018-12-27T02:20:50.215Z,2.10
2018-12-27T02:27:26.747Z,2.10
2018-12-27T02:33:20.797Z,2.10
2018-12-27T02:36:17.735Z,2.10
2018-12-27T02:39:05.956Z,2.10
2018-12-27T02:42:01.015Z,2.10
2018-12-27T02:44:48.008Z,2.10
2018-12-27T02:47:40.375Z,2.10
2018-12-27T02:50:34.467Z,2.10
2018-12-27T02:56:32.586Z,2.10
2018-12-27T03:02:37.486Z,2.10
2018-12-27T03:05:30.586Z,2.10
2018-12-27T03:08:15.476Z,2.10
2018-12-27T03:14:06.066Z,2.10
2018-12-27T03:17:02.892Z,2.10
2018-12-27T03:19:46.528Z,2.10
2018-12-27T03:28:44.111Z,2.10
2018-12-27T03:31:56.887Z,2.10
2018-12-27T03:34:31.855Z,2.10
2018-12-27T03:37:25.597Z,2.10
2018-12-27T03:43:14.150Z,2.10
2018-12-27T03:45:58.836Z,2.10
2018-12-27T03:51:46.226Z,2.10
2018-12-27T03:55:01.156Z,2.10
2018-12-27T04:00:54.227Z,2.10
2018-12-27T04:03:35.327Z,2.10
2018-12-27T04:06:39.986Z,2.10
2018-12-27T04:09:22.197Z,2.10
2018-12-27T04:12:13.420Z,2.10
2018-12-27T04:18:25.577Z,2.10
2018-12-27T04:30:49.783Z,2.10
2018-12-27T04:33:40.796Z,2.10
2018-12-27T04:36:47.767Z,2.10
2018-12-27T04:39:43.641Z,2.10
2018-12-27T04:43:18.682Z,2.10
2018-12-27T04:48:54.996Z,2.20
2018-12-27T04:57:24.747Z,2.20
2018-12-27T05:03:41.597Z,2.20
2018-12-27T05:06:50.738Z,2.20
2018-12-27T05:15:44.477Z,2.20
2018-12-27T05:21:39.956Z,2.20
2018-12-27T05:24:34.042Z,2.20
2018-12-27T05:27:44.289Z,2.20
2018-12-27T05:30:41.496Z,2.20
2018-12-27T05:36:31.646Z,2.20
2018-12-27T05:39:32.836Z,2.30
2018-12-27T05:42:21.615Z,2.30
2018-12-27T05:45:14.396Z,2.20
2018-12-27T05:48:27.203Z,2.20
2018-12-27T05:57:20.636Z,2.20
2018-12-27T06:06:19.146Z,2.30
2018-12-27T06:15:04.516Z,2.30
2018-12-27T06:22:21.956Z,2.30
2018-12-27T06:23:35.805Z,2.40
2018-12-27T06:29:32.371Z,2.40
2018-12-27T06:36:07.491Z,2.40
2018-12-27T06:41:48.747Z,2.50
2018-12-27T06:56:47.596Z,2.40
2018-12-27T07:00:29.396Z,2.50
2018-12-27T07:05:55.267Z,2.50
2018-12-27T07:08:53.857Z,2.50
2018-12-27T07:15:13.877Z,2.50
2018-12-27T07:18:21.347Z,2.50
2018-12-27T07:24:07.406Z,2.50
2018-12-27T07:27:02.491Z,2.50
2018-12-27T07:30:23.627Z,2.50
2018-12-27T07:35:41.857Z,2.60
2018-12-27T07:38:33.957Z,2.60
2018-12-27T07:44:29.650Z,2.60
2018-12-27T07:50:14.516Z,2.70
2018-12-27T07:53:46.680Z,2.70
2018-12-27T07:59:23.226Z,2.80
2018-12-27T08:08:29.257Z,2.90
2018-12-27T08:13:51.026Z,2.90
2018-12-27T08:16:55.236Z,2.90
2018-12-27T08:23:14.636Z,2.90
2018-12-27T08:28:45.246Z,2.90
2018-12-27T08:31:48.348Z,3.00
2018-12-27T08:34:34.401Z,3.00
2018-12-27T08:43:52.017Z,3.00
2018-12-27T08:47:01.592Z,3.00
2018-12-27T08:52:53.139Z,3.10
2018-12-27T08:55:56.707Z,3.10
2018-12-27T08:59:12.097Z,3.20
2018-12-27T09:08:11.926Z,3.30
2018-12-27T09:17:35.496Z,3.30
2018-12-27T09:23:38.766Z,3.40
2018-12-27T09:26:34.373Z,3.40
2018-12-27T09:29:00.726Z,3.50
2018-12-27T09:31:35.486Z,3.50
2018-12-27T09:38:18.201Z,3.60
2018-12-27T09:41:12.890Z,3.60
2018-12-27T09:44:18.623Z,3.60
2018-12-27T09:50:43.675Z,3.70
2018-12-27T09:56:31.546Z,3.70
2018-12-27T09:59:34.916Z,3.70
2018-12-27T10:02:16.105Z,3.70
2018-12-27T10:08:01.936Z,3.80
2018-12-27T10:18:43.837Z,4.00
2018-12-27T10:22:53.497Z,4.00
2018-12-27T10:43:00.858Z,4.00
2018-12-27T10:45:31.686Z,4.20
2018-12-27T10:48:02.635Z,4.30
2018-12-27T10:50:34.051Z,4.30
2018-12-27T10:53:05.020Z,4.30
2018-12-27T10:55:34.843Z,4.30
2018-12-27T10:58:05.715Z,4.30
2018-12-27T11:00:36.478Z,4.30
2018-12-27T11:03:07.283Z,4.30
2018-12-27T11:05:38.164Z,4.30
2018-12-27T11:08:07.963Z,4.30
2018-12-27T11:10:40.475Z,4.30
2018-12-27T11:13:10.355Z,4.40
2018-12-27T11:15:41.163Z,4.40
2018-12-27T11:18:12.043Z,4.40
2018-12-27T11:20:42.954Z,4.40
2018-12-27T11:23:12.599Z,4.40
2018-12-27T11:25:44.042Z,4.50
2018-12-27T11:28:16.964Z,4.50
2018-12-27T11:30:47.873Z,4.50
2018-12-27T11:33:18.315Z,4.60
2018-12-27T11:35:48.075Z,4.50
2018-12-27T11:38:18.946Z,4.60
2018-12-27T11:40:50.236Z,4.60
2018-12-27T11:43:21.121Z,4.60
2018-12-27T11:45:51.885Z,4.60
2018-12-27T11:48:23.402Z,4.60
2018-12-27T11:50:54.242Z,4.60
2018-12-27T11:53:25.164Z,4.60
2018-12-27T11:55:56.116Z,4.60
2018-12-27T11:58:27.554Z,4.60
2018-12-27T12:00:59.082Z,4.60
2018-12-27T12:03:29.874Z,4.70
2018-12-27T12:06:03.431Z,4.70
2018-12-27T12:08:32.634Z,4.70
2018-12-27T12:11:03.194Z,4.70
2018-12-27T12:13:32.932Z,4.70
2018-12-27T12:16:05.962Z,4.70
2018-12-27T12:18:35.754Z,4.70
2018-12-27T12:21:06.515Z,4.70
2018-12-27T12:23:37.282Z,4.70
2018-12-27T12:26:08.128Z,4.70
2018-12-27T12:28:39.635Z,4.70
2018-12-27T12:31:10.563Z,4.70
2018-12-27T12:33:42.082Z,4.70
2018-12-27T12:36:12.834Z,4.70
2018-12-27T12:38:42.474Z,4.70
2018-12-27T12:41:12.243Z,4.70
2018-12-27T12:43:41.443Z,4.70
2018-12-27T12:46:12.196Z,4.70
2018-12-27T12:48:42.967Z,4.70
2018-12-27T12:51:13.810Z,4.70
2018-12-27T12:53:44.683Z,4.80
2018-12-27T12:56:17.724Z,4.70
2018-12-27T12:58:48.642Z,4.70
2018-12-27T13:01:19.603Z,4.70
2018-12-27T13:03:50.336Z,4.80
2018-12-27T13:06:21.167Z,4.70
2018-12-27T13:08:51.003Z,4.80
2018-12-27T13:11:22.483Z,4.80
2018-12-27T13:13:53.371Z,4.80
2018-12-27T13:16:24.243Z,4.80
2018-12-27T13:18:55.041Z,4.80
2018-12-27T13:21:25.770Z,4.70
2018-12-27T13:23:56.602Z,4.80
2018-12-27T13:26:27.289Z,4.80
2018-12-27T13:28:58.278Z,4.80
2018-12-27T13:31:29.050Z,4.80
2018-12-27T13:33:59.926Z,4.80
2018-12-27T13:36:29.602Z,4.80
2018-12-27T13:39:00.367Z,4.80
2018-12-27T13:41:31.809Z,4.70
2018-12-27T13:44:02.726Z,4.70
2018-12-27T13:46:33.673Z,4.80
2018-12-27T13:49:04.514Z,4.80
2018-12-27T13:51:34.201Z,4.80
2018-12-27T13:54:04.993Z,4.80
2018-12-27T13:56:35.834Z,4.80
2018-12-27T13:59:06.638Z,4.80
2018-12-27T14:01:37.434Z,4.80
2018-12-27T14:04:08.278Z,4.80
2018-12-27T14:06:37.958Z,4.80
2018-12-27T14:09:09.369Z,4.80
2018-12-27T14:11:39.202Z,4.80
2018-12-27T14:14:10.085Z,4.80
2018-12-27T14:16:40.875Z,4.80
2018-12-27T14:19:42.083Z,4.80
2018-12-27T14:22:12.846Z,4.80
2018-12-27T14:24:43.683Z,4.80
2018-12-27T14:27:14.526Z,4.80
2018-12-27T14:29:45.355Z,4.80
2018-12-27T14:32:16.843Z,4.80
2018-12-27T14:34:47.610Z,4.80
2018-12-27T14:37:18.522Z,4.80
2018-12-27T14:39:49.323Z,4.80
2018-12-27T14:42:22.283Z,4.80
2018-12-27T14:44:52.997Z,4.80
2018-12-27T14:47:23.802Z,4.80
2018-12-27T14:49:54.603Z,4.80
2018-12-27T14:52:25.443Z,4.80
2018-12-27T14:54:57.634Z,4.80
2018-12-27T14:57:28.365Z,4.80
2018-12-27T14:59:59.162Z,4.80
2018-12-27T15:02:30.449Z,4.80
2018-12-27T15:05:01.323Z,4.80
2018-12-27T15:07:32.594Z,4.80
2018-12-27T15:10:03.401Z,4.80
2018-12-27T15:12:34.358Z,4.80
2018-12-27T15:15:05.195Z,4.80
2018-12-27T15:17:36.835Z,4.80
2018-12-27T15:20:08.442Z,4.80
2018-12-27T15:22:38.256Z,4.80
2018-12-27T15:25:09.086Z,4.80
2018-12-27T15:27:39.884Z,4.80
2018-12-27T15:30:09.602Z,4.80
2018-12-27T15:32:40.116Z,4.80
2018-12-27T15:35:10.927Z,4.80
2018-12-27T15:37:40.673Z,4.80
2018-12-27T15:40:10.437Z,4.80
2018-12-27T15:42:41.283Z,4.80
2018-12-27T15:45:12.035Z,4.80
2018-12-27T15:47:42.755Z,4.80
2018-12-27T15:50:13.565Z,4.80
2018-12-27T15:52:44.354Z,4.80
2018-12-27T15:55:15.114Z,4.80
2018-12-27T15:57:45.896Z,4.80
2018-12-27T16:00:16.721Z,4.80
2018-12-27T16:02:46.482Z,4.80
2018-12-27T16:05:16.281Z,4.80
2018-12-27T16:07:49.163Z,4.80
2018-12-27T16:10:19.966Z,4.80
2018-12-27T16:12:50.807Z,4.80
2018-12-27T16:15:21.634Z,4.80
2018-12-27T16:17:52.408Z,4.80
2018-12-27T16:20:23.217Z,4.80
2018-12-27T16:22:54.046Z,4.80
2018-12-27T16:25:24.887Z,4.80
2018-12-27T16:27:55.729Z,4.80
2018-12-27T16:30:26.610Z,4.80
2018-12-27T16:32:57.487Z,4.80
2018-12-27T16:35:28.373Z,4.80
2018-12-27T16:37:59.245Z,4.80
2018-12-27T16:40:30.008Z,4.80
2018-12-27T16:43:03.847Z,4.80
2018-12-27T16:45:34.606Z,4.80
2018-12-27T16:48:05.518Z,4.80
2018-12-27T16:50:36.968Z,4.80
2018-12-27T16:53:06.798Z,4.80
2018-12-27T16:55:38.363Z,4.80
2018-12-27T16:58:09.358Z,4.70
2018-12-27T17:00:39.249Z,4.80
2018-12-27T17:03:10.055Z,4.80
2018-12-27T17:05:40.926Z,4.80
2018-12-27T17:08:13.119Z,4.70
2018-12-27T17:10:44.335Z,4.70
2018-12-27T17:13:15.082Z,4.80
2018-12-27T17:15:45.919Z,4.80
2018-12-27T17:18:16.687Z,4.70
2018-12-27T17:20:48.871Z,4.70
2018-12-27T17:23:19.767Z,4.70
2018-12-27T17:25:49.562Z,4.80
2018-12-27T17:28:20.489Z,4.80
2018-12-27T17:30:50.216Z,4.70
2018-12-27T17:33:23.087Z,4.70
2018-12-27T17:35:55.360Z,4.70
2018-12-27T17:38:26.227Z,4.70
2018-12-27T17:40:57.808Z,4.70
2018-12-27T17:43:27.518Z,4.70
2018-12-27T17:45:58.445Z,4.70
2018-12-27T17:48:28.843Z,4.70
2018-12-27T17:51:00.267Z,4.70
2018-12-27T17:53:31.110Z,4.70
2018-12-27T17:56:00.968Z,4.70
2018-12-27T17:58:31.998Z,4.60
2018-12-27T18:01:02.968Z,4.60
2018-12-27T18:03:36.584Z,4.60
2018-12-27T18:06:11.060Z,4.60
2018-12-27T18:08:41.844Z,4.60
2018-12-27T18:11:15.542Z,4.60
2018-12-27T18:13:45.719Z,4.60
2018-12-27T18:16:18.883Z,4.60
2018-12-27T18:18:48.609Z,4.60
2018-12-27T18:21:19.397Z,4.60
2018-12-27T18:23:50.286Z,4.60
2018-12-27T18:26:19.519Z,4.60
2018-12-27T18:28:50.329Z,4.60
2018-12-27T18:31:19.637Z,4.50
2018-12-27T18:33:52.820Z,4.50
2018-12-27T18:36:24.087Z,4.50
2018-12-27T18:38:54.915Z,4.50
2018-12-27T18:41:25.803Z,4.50
2018-12-27T18:43:58.216Z,4.40
2018-12-27T18:46:29.118Z,4.40
2018-12-27T18:48:58.847Z,4.40
2018-12-27T18:51:28.640Z,4.40
2018-12-27T18:54:00.555Z,4.40
2018-12-27T18:56:30.520Z,4.40
2018-12-27T18:58:59.772Z,4.40
2018-12-27T19:01:29.730Z,4.40
2018-12-27T19:04:00.518Z,4.40
2018-12-27T19:06:31.847Z,4.30
2018-12-27T19:09:03.321Z,4.30
2018-12-27T19:12:14.260Z,4.40
2018-12-27T19:14:45.275Z,4.30
2018-12-27T19:17:19.364Z,4.30
2018-12-27T19:19:50.329Z,4.30
2018-12-27T19:22:23.401Z,4.30
2018-12-27T19:24:57.777Z,4.30
2018-12-27T19:27:27.339Z,4.30
2018-12-27T19:29:57.119Z,4.30
2018-12-27T19:32:26.882Z,4.30
2018-12-27T19:34:57.992Z,4.30
2018-12-27T19:37:27.281Z,4.30
2018-12-27T19:39:59.679Z,4.30
2018-12-27T19:42:29.439Z,4.30
2018-12-27T19:45:06.060Z,4.30
2018-12-27T19:47:39.900Z,4.30
2018-12-27T19:50:08.287Z,4.30
2018-12-27T19:52:38.200Z,4.20
2018-12-27T19:55:10.678Z,4.30
2018-12-27T19:57:41.718Z,4.20
2018-12-27T20:00:11.799Z,4.20
2018-12-27T20:02:44.620Z,4.20
2018-12-27T20:05:15.366Z,4.20
2018-12-27T20:07:45.039Z,4.20
2018-12-27T20:10:15.960Z,4.20
2018-12-27T20:12:46.798Z,4.20
2018-12-27T20:15:17.603Z,4.20
2018-12-27T20:17:48.804Z,4.20
2018-12-27T20:20:19.685Z,4.20
2018-12-27T20:22:50.531Z,4.20
2018-12-27T20:25:21.437Z,4.20
2018-12-27T20:27:52.207Z,4.20
2018-12-27T20:30:23.758Z,4.20
2018-12-27T20:32:54.961Z,4.20
2018-12-27T20:35:25.289Z,4.20
2018-12-27T20:37:55.236Z,4.20
2018-12-27T20:40:26.000Z,4.20
2018-12-27T20:42:56.376Z,4.20
2018-12-27T20:45:28.941Z,4.20
2018-12-27T20:48:04.525Z,4.20
2018-12-27T20:50:35.427Z,4.20
2018-12-27T20:53:06.278Z,4.20
2018-12-27T20:55:37.186Z,4.20
2018-12-27T20:58:11.841Z,4.20
2018-12-27T21:00:43.727Z,4.20
2018-12-27T21:03:16.440Z,4.10
2018-12-27T21:05:47.439Z,4.20
2018-12-27T21:08:18.241Z,4.20
2018-12-27T21:10:49.118Z,4.20
2018-12-27T21:13:20.041Z,4.20
2018-12-27T21:15:50.925Z,4.20
2018-12-27T21:18:25.283Z,4.20
2018-12-27T21:20:56.208Z,4.20
2018-12-27T21:23:28.162Z,4.20
2018-12-27T21:26:00.398Z,4.10
2018-12-27T21:28:31.618Z,4.10
2018-12-27T21:31:07.159Z,4.10
2018-12-27T21:33:38.035Z,4.10
2018-12-27T21:36:10.487Z,4.10
2018-12-27T21:38:41.326Z,4.10
2018-12-27T21:41:13.761Z,4.10
2018-12-27T21:43:46.083Z,4.10
2018-12-27T21:46:16.963Z,4.10
2018-12-27T21:48:48.485Z,4.20
2018-12-27T21:51:18.447Z,4.10
2018-12-27T21:53:49.279Z,4.10
2018-12-27T21:56:20.045Z,4.10
2018-12-27T21:58:51.559Z,4.10
2018-12-27T22:01:22.318Z,4.10
2018-12-27T22:03:53.159Z,4.10
2018-12-27T22:06:24.095Z,4.10
2018-12-27T22:08:55.271Z,4.10
2018-12-27T22:11:26.142Z,4.10
2018-12-27T22:13:58.259Z,4.10
2018-12-27T22:16:28.157Z,4.10
2018-12-27T22:18:57.523Z,4.10
2018-12-27T22:21:29.629Z,4.10
2018-12-27T22:23:59.901Z,4.10
2018-12-27T22:26:29.683Z,4.10
2018-12-27T22:29:01.286Z,4.10
2018-12-27T22:31:33.208Z,4.10
2018-12-27T22:34:06.119Z,4.10
2018-12-27T22:36:36.802Z,4.10
2018-12-27T22:39:11.579Z,4.10
2018-12-27T22:41:43.413Z,4.10
2018-12-27T22:44:15.207Z,4.10
2018-12-27T22:46:44.686Z,4.10
2018-12-27T22:49:17.158Z,4.10
2018-12-27T22:51:48.080Z,4.10
2018-12-27T22:54:18.530Z,4.10
2018-12-27T22:56:48.399Z,4.10
2018-12-27T22:59:20.523Z,4.10
2018-12-27T23:01:51.293Z,4.10
2018-12-27T23:04:21.214Z,4.10
2018-12-27T23:06:50.998Z,4.10
2018-12-27T23:09:21.798Z,4.10
2018-12-27T23:11:52.575Z,4.20
2018-12-27T23:14:23.477Z,4.10
2018-12-27T23:16:54.238Z,4.20
2018-12-27T23:19:27.821Z,4.20
2018-12-27T23:21:58.640Z,4.20
2018-12-27T23:24:29.918Z,4.20
2018-12-27T23:27:00.650Z,4.20
2018-12-27T23:29:33.027Z,4.20
2018-12-27T23:32:03.858Z,4.20
2018-12-27T23:34:34.671Z,4.20
2018-12-27T23:37:05.198Z,4.20
2018-12-27T23:39:36.010Z,4.20
2018-12-27T23:42:05.848Z,4.20
2018-12-27T23:44:37.286Z,4.20
2018-12-27T23:47:08.038Z,4.20
2018-12-27T23:49:39.797Z,4.20
2018-12-27T23:52:14.079Z,4.20
2018-12-27T23:54:44.560Z,4.20
2018-12-27T23:57:16.591Z,4.20
2018-12-27T23:59:47.400Z,4.20
